Portada
METAR-TAF:

METAR-TAF

Aeroports :

El Salvador, El Salvador

latitud: 13-26N, longitud: 089-03W, altitud: 25 m

Observació

L'informe es va fer fa 1 hora i 0 minuts, a les 08:50 UTC
Vent 7 kt del Nord-Est
Temperatura 25°C
Humitat 65%
Pressió 1010 hPa
Visibilitat 10 km o més
sense núvols per sota de 1500 mi sense presència de cumulonimbus.

METAR: MSLP 180850Z 04007KT CAVOK 25/18 Q1010 A2983 NOSIG

Hora: 03:50 (09:50 UTC)

Pronòstic

L'informe es va fer fa 6 hores i 25 minuts, a les 03:25 UTC
Pronòstic vàlid del 18 a les 06 UTC al 19 a les 06 UTC
Vent 10 kt del Nord/Nord-Est
Visibilitat 10 km o més
sense núvols per sota de 1500 mi sense presència de cumulonimbus.
Temporalment
l' 18 a les 20 UTC al 19 a les 01 UTC
Vent 10 kt del Sud/Sud-Oest
Visibilitat 10 km o més
Escasses núvols a una alçada de 4300 ft

TAF: MSLP 180325Z 1806/1906 03010KT CAVOK TX34/1818Z TN23/1812Z TEMPO 1820/1901 21010KT 9999 FEW043

Observacions i pronòstics meteorològics de més de 4000 aeroports (METAR i TAF).

Les estacions disponibles són els punts grocs i vermells al mapa.

Posi el ratolí al punt desitjat per veure el nom de l'estació.

Feu clic per veure les observacions i els pronòstics meteorològics.

Per canviar el mapa: feu clic els botons verds amb una creu de color negre per apropar; al botó verd amb un guió per allunyar la imatge; o en les fletxes verdes per a mapes adjacents.


METAR-TAF: